createdAt,value
2023-03-06T00:00:54.166Z,88.00
2023-03-06T00:01:54.131Z,87.48
2023-03-06T00:02:54.125Z,86.59
2023-03-06T00:03:54.192Z,87.56
2023-03-06T00:04:54.112Z,88.19
2023-03-06T00:05:54.121Z,88.50
2023-03-06T00:06:54.081Z,88.15
2023-03-06T00:07:54.092Z,88.40
2023-03-06T00:08:54.124Z,88.25
2023-03-06T00:09:54.063Z,87.63
2023-03-06T00:10:54.057Z,87.63
2023-03-06T00:11:54.063Z,87.42
2023-03-06T00:12:54.049Z,86.55
2023-03-06T00:13:54.050Z,86.65
2023-03-06T00:14:54.086Z,86.55
2023-03-06T00:15:54.115Z,86.61
2023-03-06T00:16:54.033Z,86.65
2023-03-06T00:17:54.040Z,86.24
2023-03-06T00:18:54.014Z,86.19
2023-03-06T00:19:54.050Z,85.68
2023-03-06T00:20:54.997Z,85.57
2023-03-06T00:21:54.012Z,85.57
2023-03-06T00:22:54.040Z,85.05
2023-03-06T00:23:54.016Z,85.16
2023-03-06T00:24:54.018Z,85.16
2023-03-06T00:25:54.015Z,85.05
2023-03-06T00:26:54.002Z,84.95
2023-03-06T00:27:53.962Z,84.84
2023-03-06T00:28:53.987Z,85.10
2023-03-06T00:29:53.943Z,85.41
2023-03-06T00:30:53.957Z,85.72
2023-03-06T00:31:53.956Z,86.69
2023-03-06T00:32:53.950Z,87.66
2023-03-06T00:33:53.917Z,88.19
2023-03-06T00:34:53.946Z,88.92
2023-03-06T00:35:54.010Z,88.71
2023-03-06T00:36:53.908Z,88.60
2023-03-06T00:37:53.918Z,88.75
2023-03-06T00:38:53.915Z,88.58
2023-03-06T00:39:53.872Z,89.27
2023-03-06T00:40:53.905Z,89.10
2023-03-06T00:41:53.868Z,89.62
2023-03-06T00:42:53.886Z,91.02
2023-03-06T00:43:53.865Z,90.56
2023-03-06T00:44:53.847Z,89.69
2023-03-06T00:45:53.871Z,91.14
2023-03-06T00:46:53.853Z,90.20
2023-03-06T00:47:53.860Z,89.75
2023-03-06T00:48:53.869Z,89.23
2023-03-06T00:49:53.828Z,88.71
2023-03-06T00:50:53.816Z,89.06
2023-03-06T00:51:53.795Z,89.98
2023-03-06T00:52:53.870Z,90.50
2023-03-06T00:53:53.789Z,90.91
2023-03-06T00:54:53.793Z,91.12
2023-03-06T00:55:53.771Z,91.50
2023-03-06T00:56:53.749Z,91.02
2023-03-06T00:57:53.763Z,90.91
2023-03-06T00:58:53.752Z,90.70
2023-03-06T00:59:53.741Z,91.53
2023-03-06T01:00:53.781Z,91.75
2023-03-06T01:01:53.827Z,91.39
2023-03-06T01:02:53.785Z,90.97
2023-03-06T01:03:53.717Z,91.02
2023-03-06T01:04:53.684Z,90.81
2023-03-06T01:05:53.726Z,91.85
2023-03-06T01:06:53.693Z,91.75
2023-03-06T01:07:53.682Z,91.81
2023-03-06T01:08:53.715Z,90.87
2023-03-06T01:09:53.696Z,90.70
2023-03-06T01:10:53.706Z,90.81
2023-03-06T01:11:53.650Z,91.47
2023-03-06T01:12:53.648Z,92.10
2023-03-06T01:13:53.663Z,92.21
2023-03-06T01:14:53.637Z,92.52
2023-03-06T01:15:53.623Z,92.62
2023-03-06T01:16:53.634Z,92.72
2023-03-06T01:17:53.631Z,93.04
2023-03-06T01:18:53.652Z,92.58
2023-03-06T01:19:53.619Z,92.16
2023-03-06T01:20:53.600Z,92.16
2023-03-06T01:21:53.595Z,92.16
2023-03-06T01:22:53.630Z,91.75
2023-03-06T01:23:53.596Z,91.64
2023-03-06T01:24:53.610Z,91.33
2023-03-06T01:25:53.614Z,91.33
2023-03-06T01:26:53.577Z,91.43
2023-03-06T01:27:53.558Z,91.33
2023-03-06T01:28:53.567Z,91.39
2023-03-06T01:29:53.552Z,91.18
2023-03-06T01:30:53.585Z,90.56
2023-03-06T01:31:53.599Z,90.83
2023-03-06T01:32:53.523Z,90.31
2023-03-06T01:33:53.501Z,90.04
2023-03-06T01:34:53.520Z,90.97
2023-03-06T01:35:53.562Z,90.87
2023-03-06T01:36:53.508Z,90.35
2023-03-06T01:37:53.505Z,90.56
2023-03-06T01:38:53.504Z,90.39
2023-03-06T01:39:53.488Z,90.70
2023-03-06T01:40:53.504Z,90.50
2023-03-06T01:41:53.527Z,91.12
2023-03-06T01:42:53.475Z,90.91
2023-03-06T01:43:53.448Z,91.18
2023-03-06T01:44:53.465Z,91.22
2023-03-06T01:45:53.450Z,90.91
2023-03-06T01:46:53.460Z,91.02
2023-03-06T01:47:53.430Z,91.22
2023-03-06T01:48:53.436Z,91.08
2023-03-06T01:49:53.429Z,90.56
2023-03-06T01:50:53.412Z,90.56
2023-03-06T01:51:54.420Z,90.25
2023-03-06T01:52:53.391Z,90.45
2023-03-06T01:53:53.441Z,90.25
2023-03-06T01:54:53.440Z,90.97
2023-03-06T01:55:53.396Z,89.73
2023-03-06T01:56:53.427Z,89.89
2023-03-06T01:57:53.427Z,90.66
2023-03-06T01:58:53.365Z,90.10
2023-03-06T01:59:53.372Z,89.23
2023-03-06T02:00:53.391Z,88.50
2023-03-06T02:01:53.362Z,88.81
2023-03-06T02:02:53.376Z,88.75
2023-03-06T02:03:53.321Z,88.54
2023-03-06T02:04:53.366Z,88.71
2023-03-06T02:05:53.323Z,88.71
2023-03-06T02:06:53.340Z,88.92
2023-03-06T02:07:53.289Z,88.71
2023-03-06T02:08:53.296Z,88.40
2023-03-06T02:09:53.306Z,88.40
2023-03-06T02:10:53.282Z,88.40
2023-03-06T02:11:53.281Z,88.04
2023-03-06T02:12:53.300Z,88.09
2023-03-06T02:13:53.311Z,87.66
2023-03-06T02:14:53.297Z,87.88
2023-03-06T02:15:53.293Z,87.66
2023-03-06T02:16:53.394Z,87.66
2023-03-06T02:17:53.252Z,87.88
2023-03-06T02:18:53.290Z,87.46
2023-03-06T02:19:53.260Z,87.01
2023-03-06T02:20:53.275Z,86.59
2023-03-06T02:21:53.232Z,86.49
2023-03-06T02:22:53.252Z,86.90
2023-03-06T02:23:53.219Z,86.90
2023-03-06T02:24:54.214Z,86.80
2023-03-06T02:25:53.212Z,86.88
2023-03-06T02:26:53.195Z,88.06
2023-03-06T02:27:53.217Z,90.44
2023-03-06T02:28:53.186Z,91.16
2023-03-06T02:29:53.184Z,91.12
2023-03-06T02:30:53.334Z,91.33
2023-03-06T02:31:53.166Z,91.50
2023-03-06T02:32:53.147Z,91.75
2023-03-06T02:33:53.144Z,91.28
2023-03-06T02:34:53.174Z,91.18
2023-03-06T02:35:53.182Z,90.77
2023-03-06T02:36:53.152Z,90.83
2023-03-06T02:37:53.157Z,90.52
2023-03-06T02:38:53.140Z,90.31
2023-03-06T02:39:53.113Z,89.37
2023-03-06T02:40:53.097Z,89.10
2023-03-06T02:41:53.122Z,90.22
2023-03-06T02:42:53.127Z,91.16
2023-03-06T02:43:53.071Z,91.47
2023-03-06T02:44:53.091Z,92.66
2023-03-06T02:45:53.155Z,93.08
2023-03-06T02:46:53.091Z,92.93
2023-03-06T02:47:53.065Z,92.93
2023-03-06T02:48:53.033Z,92.93
2023-03-06T02:49:53.030Z,93.35
2023-03-06T02:50:53.036Z,93.50
2023-03-06T02:51:53.034Z,93.56
2023-03-06T02:52:53.050Z,93.35
2023-03-06T02:53:53.059Z,93.41
2023-03-06T02:54:53.010Z,93.31
2023-03-06T02:55:53.016Z,92.99
2023-03-06T02:56:53.024Z,92.52
2023-03-06T02:57:53.029Z,92.72
2023-03-06T02:58:53.020Z,93.04
2023-03-06T02:59:52.993Z,93.14
2023-03-06T03:00:53.001Z,93.40
2023-03-06T03:01:53.055Z,93.50
2023-03-06T03:02:52.976Z,94.23
2023-03-06T03:03:52.957Z,94.43
2023-03-06T03:04:53.079Z,94.02
2023-03-06T03:05:52.991Z,94.33
2023-03-06T03:06:52.966Z,94.49
2023-03-06T03:07:52.928Z,94.49
2023-03-06T03:08:52.915Z,93.87
2023-03-06T03:09:52.899Z,93.98
2023-03-06T03:10:52.956Z,94.08
2023-03-06T03:11:52.942Z,93.73
2023-03-06T03:12:52.880Z,93.83
2023-03-06T03:13:52.892Z,93.62
2023-03-06T03:14:52.878Z,93.16
2023-03-06T03:15:52.894Z,92.37
2023-03-06T03:16:52.896Z,92.47
2023-03-06T03:17:52.868Z,92.99
2023-03-06T03:18:52.852Z,92.85
2023-03-06T03:19:52.874Z,92.79
2023-03-06T03:20:52.838Z,92.79
2023-03-06T03:21:52.845Z,92.79
2023-03-06T03:22:52.836Z,92.79
2023-03-06T03:23:52.827Z,92.58
2023-03-06T03:24:52.863Z,92.54
2023-03-06T03:25:52.813Z,92.47
2023-03-06T03:26:52.821Z,92.58
2023-03-06T03:27:52.799Z,92.74
2023-03-06T03:28:52.780Z,91.91
2023-03-06T03:29:52.783Z,92.37
2023-03-06T03:30:52.800Z,92.33
2023-03-06T03:31:52.768Z,92.33
2023-03-06T03:32:52.801Z,92.33
2023-03-06T03:33:52.767Z,92.02
2023-03-06T03:34:52.750Z,91.66
2023-03-06T03:35:52.851Z,91.56
2023-03-06T03:36:52.753Z,91.46
2023-03-06T03:37:52.741Z,91.52
2023-03-06T03:38:52.790Z,91.14
2023-03-06T03:39:52.739Z,90.52
2023-03-06T03:40:52.803Z,90.93
2023-03-06T03:41:52.749Z,90.79
2023-03-06T03:42:52.704Z,90.20
2023-03-06T03:43:52.702Z,90.72
2023-03-06T03:44:52.738Z,90.77
2023-03-06T03:45:52.682Z,91.35
2023-03-06T03:46:52.728Z,90.93
2023-03-06T03:47:52.659Z,91.56
2023-03-06T03:48:52.649Z,91.77
2023-03-06T03:49:52.644Z,91.00
2023-03-06T03:50:52.722Z,91.10
2023-03-06T03:51:52.634Z,91.20
2023-03-06T03:52:52.672Z,90.26
2023-03-06T03:53:52.636Z,90.69
2023-03-06T03:54:52.639Z,90.37
2023-03-06T03:55:52.647Z,90.69
2023-03-06T03:56:52.625Z,89.92
2023-03-06T03:57:52.645Z,90.44
2023-03-06T03:58:52.621Z,89.92
2023-03-06T03:59:52.626Z,89.50
2023-03-06T04:00:52.640Z,89.50
2023-03-06T04:01:52.679Z,89.29
2023-03-06T04:02:52.574Z,89.08
2023-03-06T04:03:52.570Z,89.25
2023-03-06T04:04:52.628Z,88.42
2023-03-06T04:05:52.565Z,88.62
2023-03-06T04:06:52.573Z,88.73
2023-03-06T04:07:52.537Z,88.73
2023-03-06T04:08:52.538Z,88.94
2023-03-06T04:09:52.528Z,88.62
2023-03-06T04:10:52.527Z,89.04
2023-03-06T04:11:52.552Z,88.84
2023-03-06T04:12:52.528Z,88.62
2023-03-06T04:13:52.497Z,88.31
2023-03-06T04:14:52.488Z,88.42
2023-03-06T04:15:52.688Z,88.42
2023-03-06T04:16:52.501Z,88.52
2023-03-06T04:17:52.504Z,88.04
2023-03-06T04:18:52.472Z,88.71
2023-03-06T04:19:52.459Z,89.33
2023-03-06T04:20:52.528Z,90.37
2023-03-06T04:21:52.473Z,90.37
2023-03-06T04:22:52.480Z,89.95
2023-03-06T04:23:52.471Z,90.16
2023-03-06T04:24:52.426Z,90.69
2023-03-06T04:25:52.438Z,89.92
2023-03-06T04:26:52.414Z,90.37
2023-03-06T04:27:52.460Z,90.06
2023-03-06T04:28:52.414Z,90.89
2023-03-06T04:29:52.421Z,90.89
2023-03-06T04:30:52.418Z,91.46
2023-03-06T04:31:52.401Z,91.20
2023-03-06T04:32:52.408Z,92.03
2023-03-06T04:33:52.372Z,92.39
2023-03-06T04:34:52.380Z,92.14
2023-03-06T04:35:52.418Z,92.55
2023-03-06T04:36:52.366Z,92.14
2023-03-06T04:37:52.408Z,92.03
2023-03-06T04:38:52.386Z,92.10
2023-03-06T04:39:52.349Z,92.10
2023-03-06T04:40:52.368Z,92.03
2023-03-06T04:41:52.335Z,91.93
2023-03-06T04:42:52.350Z,91.47
2023-03-06T04:43:52.329Z,91.78
2023-03-06T04:44:52.323Z,91.52
2023-03-06T04:45:52.323Z,91.93
2023-03-06T04:46:52.309Z,91.93
2023-03-06T04:47:52.320Z,91.62
2023-03-06T04:48:52.317Z,91.83
2023-03-06T04:49:52.282Z,91.89
2023-03-06T04:50:52.305Z,91.99
2023-03-06T04:51:52.294Z,91.37
2023-03-06T04:52:52.338Z,91.37
2023-03-06T04:53:52.311Z,91.47
2023-03-06T04:54:52.271Z,91.58
2023-03-06T04:55:52.236Z,91.31
2023-03-06T04:56:52.252Z,91.99
2023-03-06T04:57:52.270Z,92.03
2023-03-06T04:58:52.273Z,91.72
2023-03-06T04:59:52.241Z,91.62
2023-03-06T05:00:52.290Z,91.62
2023-03-06T05:01:52.308Z,91.99
2023-03-06T05:02:52.204Z,91.62
2023-03-06T05:03:52.217Z,91.78
2023-03-06T05:04:52.197Z,92.14
2023-03-06T05:05:52.204Z,91.41
2023-03-06T05:06:52.175Z,91.37
2023-03-06T05:07:52.180Z,91.58
2023-03-06T05:08:52.198Z,91.27
2023-03-06T05:09:52.210Z,91.27
2023-03-06T05:10:52.149Z,90.64
2023-03-06T05:11:52.173Z,90.85
2023-03-06T05:12:52.122Z,90.95
2023-03-06T05:13:52.122Z,90.75
2023-03-06T05:14:53.144Z,90.95
2023-03-06T05:15:52.152Z,91.06
2023-03-06T05:16:52.101Z,91.06
2023-03-06T05:17:52.103Z,91.06
2023-03-06T05:18:52.120Z,90.95
2023-03-06T05:19:52.097Z,90.75
2023-03-06T05:20:52.132Z,90.95
2023-03-06T05:21:52.096Z,90.64
2023-03-06T05:22:52.112Z,91.06
2023-03-06T05:23:52.175Z,90.33
2023-03-06T05:24:52.040Z,90.33
2023-03-06T05:25:52.055Z,90.12
2023-03-06T05:26:52.068Z,90.44
2023-03-06T05:27:52.038Z,90.02
2023-03-06T05:28:52.067Z,90.23
2023-03-06T05:29:52.021Z,89.92
2023-03-06T05:30:53.041Z,90.02
2023-03-06T05:31:52.061Z,89.36
2023-03-06T05:32:52.071Z,89.46
2023-03-06T05:33:52.054Z,89.15
2023-03-06T05:34:52.046Z,89.18
2023-03-06T05:35:52.072Z,89.39
2023-03-06T05:36:51.992Z,89.29
2023-03-06T05:37:51.975Z,89.46
2023-03-06T05:38:51.978Z,89.36
2023-03-06T05:39:52.155Z,89.15
2023-03-06T05:40:52.951Z,89.18
2023-03-06T05:41:51.954Z,88.42
2023-03-06T05:42:51.957Z,88.46
2023-03-06T05:43:51.968Z,88.77
2023-03-06T05:44:51.985Z,88.46
2023-03-06T05:45:51.950Z,89.39
2023-03-06T05:46:51.928Z,88.35
2023-03-06T05:47:51.913Z,88.77
2023-03-06T05:48:51.982Z,88.77
2023-03-06T05:49:51.924Z,88.77
2023-03-06T05:50:51.917Z,88.87
2023-03-06T05:51:51.915Z,88.77
2023-03-06T05:52:51.903Z,88.84
2023-03-06T05:53:51.921Z,88.62
2023-03-06T05:54:51.869Z,88.46
2023-03-06T05:55:51.891Z,88.62
2023-03-06T05:56:51.900Z,88.35
2023-03-06T05:57:52.140Z,88.15
2023-03-06T05:58:51.861Z,88.46
2023-03-06T05:59:51.895Z,88.87
2023-03-06T06:00:51.854Z,88.56
2023-03-06T06:01:51.831Z,88.67
2023-03-06T06:02:51.839Z,88.98
2023-03-06T06:03:51.864Z,88.56
2023-03-06T06:04:51.869Z,88.87
2023-03-06T06:05:51.822Z,88.87
2023-03-06T06:06:51.823Z,88.87
2023-03-06T06:07:51.798Z,88.87
2023-03-06T06:08:51.776Z,88.67
2023-03-06T06:09:51.773Z,88.98
2023-03-06T06:10:53.480Z,88.77
2023-03-06T06:11:52.761Z,88.87
2023-03-06T06:12:51.774Z,88.67
2023-03-06T06:13:51.789Z,88.77
2023-03-06T06:14:51.811Z,88.84
2023-03-06T06:15:51.784Z,89.04
2023-03-06T06:16:51.767Z,88.73
2023-03-06T06:17:51.718Z,88.62
2023-03-06T06:18:51.752Z,88.42
2023-03-06T06:19:51.708Z,88.31
2023-03-06T06:20:51.702Z,88.10
2023-03-06T06:21:51.756Z,88.10
2023-03-06T06:22:51.684Z,88.10
2023-03-06T06:23:51.688Z,88.62
2023-03-06T06:24:51.668Z,88.07
2023-03-06T06:25:51.653Z,88.00
2023-03-06T06:26:51.652Z,88.10
2023-03-06T06:27:51.684Z,87.65
2023-03-06T06:28:51.655Z,87.59
2023-03-06T06:29:51.644Z,87.55
2023-03-06T06:30:51.681Z,87.96
2023-03-06T06:31:51.653Z,88.00
2023-03-06T06:32:51.669Z,88.07
2023-03-06T06:33:51.664Z,88.07
2023-03-06T06:34:51.653Z,87.86
2023-03-06T06:35:51.669Z,87.65
2023-03-06T06:36:53.314Z,87.76
2023-03-06T06:37:52.677Z,88.07
2023-03-06T06:38:51.698Z,87.86
2023-03-06T06:39:51.600Z,87.76
2023-03-06T06:41:26.767Z,88.28
2023-03-06T06:42:05.878Z,88.07
2023-03-06T06:42:53.614Z,88.28
2023-03-06T06:43:51.625Z,87.96
2023-03-06T06:44:51.559Z,88.17
2023-03-06T06:45:52.114Z,88.17
2023-03-06T06:47:53.805Z,88.07
2023-03-06T06:48:51.551Z,87.96
2023-03-06T06:49:51.609Z,87.65
2023-03-06T06:50:51.535Z,87.55
2023-03-06T06:51:51.517Z,87.55
2023-03-06T06:52:51.502Z,87.65
2023-03-06T06:53:51.569Z,87.55
2023-03-06T06:54:51.535Z,87.65
2023-03-06T06:55:51.473Z,87.76
2023-03-06T06:56:51.474Z,87.45
2023-03-06T06:57:51.465Z,87.76
2023-03-06T06:58:51.470Z,87.76
2023-03-06T06:59:53.831Z,87.65
2023-03-06T07:00:52.468Z,87.76
2023-03-06T07:01:51.559Z,87.55
2023-03-06T07:02:51.441Z,87.76
2023-03-06T07:03:51.468Z,87.76
2023-03-06T07:05:03.702Z,86.61
2023-03-06T07:05:53.415Z,86.82
2023-03-06T07:06:51.428Z,86.57
2023-03-06T07:07:51.444Z,86.82
2023-03-06T07:08:51.377Z,86.61
2023-03-06T07:09:51.399Z,86.41
2023-03-06T07:10:51.390Z,86.72
2023-03-06T07:11:51.407Z,86.72
2023-03-06T07:12:51.375Z,86.78
2023-03-06T07:13:51.389Z,86.57
2023-03-06T07:14:51.367Z,86.72
2023-03-06T07:15:51.372Z,86.47
2023-03-06T07:16:51.341Z,86.68
2023-03-06T07:17:51.343Z,86.78
2023-03-06T07:18:51.344Z,86.78
2023-03-06T07:19:51.341Z,86.26
2023-03-06T07:20:51.322Z,86.05
2023-03-06T07:21:51.348Z,86.36
2023-03-06T07:22:52.016Z,86.36
2023-03-06T07:23:52.318Z,86.88
2023-03-06T07:24:51.295Z,86.78
2023-03-06T07:25:51.415Z,86.26
2023-03-06T07:26:51.279Z,85.95
2023-03-06T07:27:53.969Z,85.53
2023-03-06T07:28:53.047Z,86.16
2023-03-06T07:29:52.256Z,85.95
2023-03-06T07:30:51.380Z,85.85
2023-03-06T07:31:51.262Z,85.85
2023-03-06T07:32:51.282Z,85.64
2023-03-06T07:33:51.249Z,85.85
2023-03-06T07:34:51.235Z,86.16
2023-03-06T07:35:51.248Z,85.95
2023-03-06T07:36:51.217Z,85.74
2023-03-06T07:37:51.236Z,85.64
2023-03-06T07:38:51.222Z,85.64
2023-03-06T07:39:51.203Z,85.64
2023-03-06T07:40:51.237Z,85.43
2023-03-06T07:41:51.228Z,85.64
2023-03-06T07:42:51.200Z,86.05
2023-03-06T07:43:51.288Z,86.05
2023-03-06T07:44:51.184Z,86.26
2023-03-06T07:45:51.180Z,85.85
2023-03-06T07:46:51.241Z,86.16
2023-03-06T07:47:51.156Z,85.64
2023-03-06T07:48:51.155Z,85.53
2023-03-06T07:49:51.199Z,85.53
2023-03-06T07:50:51.144Z,85.43
2023-03-06T07:51:51.339Z,85.85
2023-03-06T07:52:51.120Z,85.85
2023-03-06T07:53:51.155Z,85.53
2023-03-06T07:54:51.118Z,86.05
2023-03-06T07:55:51.131Z,85.64
2023-03-06T07:56:51.127Z,85.85
2023-03-06T07:57:51.132Z,85.85
2023-03-06T07:58:51.104Z,86.36
2023-03-06T07:59:51.059Z,86.05
2023-03-06T08:00:51.104Z,86.47
2023-03-06T08:01:51.070Z,86.16
2023-03-06T08:02:51.110Z,86.12
2023-03-06T08:03:51.114Z,86.18
2023-03-06T08:04:51.022Z,86.18
2023-03-06T08:05:51.129Z,85.66
2023-03-06T08:06:51.060Z,85.14
2023-03-06T08:07:51.047Z,84.73
2023-03-06T08:08:51.065Z,84.59
2023-03-06T08:09:51.012Z,83.65
2023-03-06T08:10:51.092Z,83.58
2023-03-06T08:11:51.030Z,83.33
2023-03-06T08:12:51.001Z,83.12
2023-03-06T08:13:50.971Z,81.95
2023-03-06T08:14:51.034Z,81.35
2023-03-06T08:15:51.007Z,80.22
2023-03-06T08:16:50.979Z,80.11
2023-03-06T08:17:51.026Z,79.36
2023-03-06T08:18:50.929Z,78.39
2023-03-06T08:19:51.014Z,78.14
2023-03-06T08:20:50.975Z,77.84
2023-03-06T08:21:51.007Z,77.28
2023-03-06T08:22:50.934Z,76.25
2023-03-06T08:23:50.959Z,76.15
2023-03-06T08:24:50.971Z,76.25
2023-03-06T08:25:50.922Z,75.98
2023-03-06T08:26:50.917Z,75.36
2023-03-06T08:27:50.896Z,74.88
2023-03-06T08:28:50.897Z,75.70
2023-03-06T08:29:50.912Z,75.53
2023-03-06T08:30:50.889Z,76.18
2023-03-06T08:31:50.946Z,75.98
2023-03-06T08:32:50.897Z,76.12
2023-03-06T08:33:50.893Z,77.47
2023-03-06T08:34:50.862Z,77.70
2023-03-06T08:35:50.939Z,78.64
2023-03-06T08:36:50.850Z,79.19
2023-03-06T08:37:50.948Z,79.26
2023-03-06T08:38:50.838Z,79.30
2023-03-06T08:39:50.823Z,79.67
2023-03-06T08:40:50.816Z,79.57
2023-03-06T08:41:50.801Z,79.98
2023-03-06T08:42:50.839Z,79.71
2023-03-06T08:43:50.855Z,80.02
2023-03-06T08:44:50.802Z,80.08
2023-03-06T08:45:50.817Z,79.36
2023-03-06T08:46:50.758Z,79.88
2023-03-06T08:47:50.801Z,79.88
2023-03-06T08:48:50.764Z,80.19
2023-03-06T08:49:50.733Z,78.64
2023-03-06T08:50:50.755Z,79.33
2023-03-06T08:51:50.752Z,79.19
2023-03-06T08:52:50.772Z,78.53
2023-03-06T08:53:50.710Z,78.28
2023-03-06T08:54:50.737Z,78.05
2023-03-06T08:55:50.711Z,77.76
2023-03-06T08:56:50.690Z,76.12
2023-03-06T08:57:50.696Z,74.71
2023-03-06T08:58:50.757Z,73.05
2023-03-06T08:59:50.762Z,73.43
2023-03-06T09:00:50.805Z,71.72
2023-03-06T09:01:50.693Z,73.05
2023-03-06T09:02:50.707Z,72.71
2023-03-06T09:03:50.656Z,71.27
2023-03-06T09:04:50.682Z,71.17
2023-03-06T09:05:50.641Z,70.24
2023-03-06T09:06:50.658Z,70.68
2023-03-06T09:07:50.634Z,70.58
2023-03-06T09:08:50.689Z,69.34
2023-03-06T09:09:50.737Z,69.96
2023-03-06T09:10:50.671Z,71.92
2023-03-06T09:11:50.676Z,71.92
2023-03-06T09:12:53.163Z,71.41
2023-03-06T09:13:51.607Z,72.02
2023-03-06T09:14:50.633Z,72.09
2023-03-06T09:15:50.598Z,71.09
2023-03-06T09:16:50.721Z,70.37
2023-03-06T09:17:50.592Z,70.65
2023-03-06T09:18:50.597Z,70.75
2023-03-06T09:19:50.586Z,70.65
2023-03-06T09:20:50.603Z,71.06
2023-03-06T09:21:50.575Z,70.65
2023-03-06T09:22:50.562Z,69.10
2023-03-06T09:23:50.533Z,69.10
2023-03-06T09:24:50.555Z,69.48
2023-03-06T09:25:50.536Z,69.48
2023-03-06T09:26:51.576Z,69.44
2023-03-06T09:28:02.088Z,69.13
2023-03-06T09:28:52.502Z,69.51
2023-03-06T09:29:50.590Z,69.20
2023-03-06T09:30:50.501Z,68.14
2023-03-06T09:31:50.526Z,67.83
2023-03-06T09:32:50.515Z,67.03
2023-03-06T09:33:50.483Z,67.32
2023-03-06T09:34:50.538Z,67.76
2023-03-06T09:35:50.534Z,68.55
2023-03-06T09:36:56.684Z,67.63
2023-03-06T09:37:52.457Z,68.24
2023-03-06T09:38:50.488Z,69.41
2023-03-06T09:39:50.463Z,69.00
2023-03-06T09:40:50.484Z,68.96
2023-03-06T09:41:50.480Z,69.07
2023-03-06T09:42:50.444Z,68.66
2023-03-06T09:43:50.434Z,68.59
2023-03-06T09:44:50.442Z,68.48
2023-03-06T09:45:50.478Z,68.79
2023-03-06T09:46:50.445Z,68.69
2023-03-06T09:47:50.419Z,67.38
2023-03-06T09:48:50.400Z,69.24
2023-03-06T09:49:50.386Z,69.17
2023-03-06T09:50:50.408Z,69.71
2023-03-06T09:51:50.378Z,70.57
2023-03-06T09:52:50.393Z,71.22
2023-03-06T09:53:50.374Z,72.50
2023-03-06T09:54:50.361Z,72.57
2023-03-06T09:55:50.378Z,72.81
2023-03-06T09:56:50.364Z,73.08
2023-03-06T09:57:51.280Z,72.36
2023-03-06T09:58:51.342Z,72.67
2023-03-06T09:59:50.351Z,73.50
2023-03-06T10:00:50.332Z,70.61
2023-03-06T10:01:50.397Z,69.67
2023-03-06T10:02:50.491Z,70.57
2023-03-06T10:03:50.358Z,70.47
2023-03-06T10:04:50.357Z,69.54
2023-03-06T10:05:50.341Z,70.33
2023-03-06T10:06:50.298Z,70.51
2023-03-06T10:07:50.303Z,70.51
2023-03-06T10:08:50.317Z,68.65
2023-03-06T10:09:50.299Z,67.79
2023-03-06T10:10:50.253Z,67.17
2023-03-06T10:11:51.248Z,67.27
2023-03-06T10:12:50.278Z,66.35
2023-03-06T10:13:50.278Z,66.76
2023-03-06T10:14:50.277Z,67.48
2023-03-06T10:15:50.309Z,67.07
2023-03-06T10:16:50.273Z,65.52
2023-03-06T10:17:50.261Z,66.55
2023-03-06T10:18:50.712Z,66.69
2023-03-06T10:19:50.227Z,65.34
2023-03-06T10:20:50.254Z,65.14
2023-03-06T10:21:50.267Z,64.65
2023-03-06T10:23:00.854Z,64.14
2023-03-06T10:23:52.246Z,65.06
2023-03-06T10:24:50.206Z,65.37
2023-03-06T10:25:50.196Z,65.79
2023-03-06T10:26:50.316Z,65.58
2023-03-06T10:27:50.209Z,63.93
2023-03-06T10:28:50.217Z,63.10
2023-03-06T10:30:01.553Z,64.55
2023-03-06T10:30:52.230Z,64.48
2023-03-06T10:31:50.169Z,63.54
2023-03-06T10:32:50.254Z,65.20
2023-03-06T10:33:50.211Z,64.37
2023-03-06T10:34:51.156Z,64.55
2023-03-06T10:35:50.207Z,65.89
2023-03-06T10:36:50.136Z,65.37
2023-03-06T10:37:50.193Z,64.89
2023-03-06T10:38:50.142Z,64.89
2023-03-06T10:39:50.101Z,65.82
2023-03-06T10:40:50.116Z,64.61
2023-03-06T10:41:50.117Z,65.82
2023-03-06T10:42:58.754Z,65.09
2023-03-06T10:43:52.138Z,65.17
2023-03-06T10:44:50.139Z,65.97
2023-03-06T10:45:50.109Z,66.04
2023-03-06T10:46:50.187Z,65.62
2023-03-06T10:47:50.087Z,64.07
2023-03-06T10:48:50.062Z,62.84
2023-03-06T10:49:50.111Z,64.80
2023-03-06T10:50:50.145Z,64.11
2023-03-06T10:51:50.054Z,63.72
2023-03-06T10:52:50.053Z,64.55
2023-03-06T10:53:50.049Z,65.34
2023-03-06T10:54:50.058Z,64.96
2023-03-06T10:55:50.041Z,64.62
2023-03-06T10:56:50.160Z,66.07
2023-03-06T10:57:50.060Z,65.62
2023-03-06T10:58:50.017Z,65.52
2023-03-06T10:59:50.004Z,65.21
2023-03-06T11:00:50.016Z,64.07
2023-03-06T11:01:50.109Z,64.28
2023-03-06T11:02:50.067Z,62.94
2023-03-06T11:03:50.015Z,64.07
2023-03-06T11:04:50.026Z,64.11
2023-03-06T11:05:50.003Z,64.55
2023-03-06T11:06:49.951Z,64.24
2023-03-06T11:07:50.007Z,63.00
2023-03-06T11:08:49.944Z,64.14
2023-03-06T11:09:49.946Z,64.45
2023-03-06T11:10:49.974Z,64.45
2023-03-06T11:11:49.947Z,64.55
2023-03-06T11:12:49.978Z,64.86
2023-03-06T11:13:50.058Z,65.48
2023-03-06T11:14:49.929Z,64.86
2023-03-06T11:15:49.933Z,65.58
2023-03-06T11:16:49.924Z,65.89
2023-03-06T11:17:50.939Z,66.61
2023-03-06T11:18:49.879Z,66.00
2023-03-06T11:19:49.892Z,65.79
2023-03-06T11:20:52.820Z,65.55
2023-03-06T11:21:50.906Z,65.14
2023-03-06T11:22:49.898Z,65.11
2023-03-06T11:23:49.889Z,64.56
2023-03-06T11:24:49.861Z,65.98
2023-03-06T11:25:49.873Z,65.67
2023-03-06T11:26:51.125Z,64.84
2023-03-06T11:27:49.868Z,64.74
2023-03-06T11:28:49.929Z,64.29
2023-03-06T11:29:49.844Z,64.22
2023-03-06T11:30:49.822Z,64.12
2023-03-06T11:31:49.814Z,64.22
2023-03-06T11:32:49.834Z,63.81
2023-03-06T11:33:49.833Z,63.19
2023-03-06T11:34:50.685Z,64.04
2023-03-06T11:35:50.870Z,63.64
2023-03-06T11:36:49.791Z,64.39
2023-03-06T11:37:49.791Z,64.04
2023-03-06T11:38:49.969Z,63.15
2023-03-06T11:39:49.800Z,64.49
2023-03-06T11:40:49.753Z,64.52
2023-03-06T11:41:49.790Z,64.42
2023-03-06T11:42:49.745Z,64.83
2023-03-06T11:43:49.750Z,64.73
2023-03-06T11:44:49.766Z,64.55
2023-03-06T11:45:49.745Z,63.82
2023-03-06T11:46:49.770Z,64.76
2023-03-06T11:47:49.729Z,64.76
2023-03-06T11:48:49.706Z,65.06
2023-03-06T11:49:49.741Z,64.86
2023-03-06T11:50:49.732Z,65.48
2023-03-06T11:51:50.700Z,64.86
2023-03-06T11:52:49.700Z,64.24
2023-03-06T11:53:49.773Z,64.86
2023-03-06T11:54:49.729Z,64.76
2023-03-06T11:55:49.738Z,64.27
2023-03-06T11:56:49.685Z,64.78
2023-03-06T11:57:49.646Z,64.78
2023-03-06T11:58:49.657Z,65.33
2023-03-06T11:59:49.665Z,64.58
2023-03-06T12:00:49.693Z,64.71
2023-03-06T12:01:49.709Z,65.33
2023-03-06T12:02:49.639Z,66.57
2023-03-06T12:03:49.657Z,66.16
2023-03-06T12:04:49.639Z,65.85
2023-03-06T12:05:49.702Z,65.54
2023-03-06T12:06:49.631Z,65.54
2023-03-06T12:07:49.625Z,65.64
2023-03-06T12:08:49.632Z,65.23
2023-03-06T12:09:49.625Z,66.06
2023-03-06T12:10:51.815Z,66.19
2023-03-06T12:11:50.620Z,66.57
2023-03-06T12:12:49.588Z,66.99
2023-03-06T12:13:49.572Z,67.40
2023-03-06T12:14:49.611Z,67.71
2023-03-06T12:15:49.551Z,68.02
2023-03-06T12:16:49.665Z,69.06
2023-03-06T12:17:49.588Z,69.37
2023-03-06T12:18:49.551Z,69.78
2023-03-06T12:19:49.545Z,70.61
2023-03-06T12:20:49.547Z,71.15
2023-03-06T12:21:49.548Z,70.84
2023-03-06T12:22:57.862Z,70.74
2023-03-06T12:23:51.542Z,70.74
2023-03-06T12:24:49.522Z,70.95
2023-03-06T12:25:49.500Z,70.92
2023-03-06T12:26:49.504Z,71.02
2023-03-06T12:27:49.527Z,70.50
2023-03-06T12:28:49.591Z,70.22
2023-03-06T12:29:49.624Z,70.71
2023-03-06T12:30:49.472Z,70.71
2023-03-06T12:31:49.494Z,71.12
2023-03-06T12:32:49.512Z,72.78
2023-03-06T12:33:49.479Z,73.39
2023-03-06T12:34:49.425Z,74.33
2023-03-06T12:35:49.439Z,74.84
2023-03-06T12:36:49.450Z,74.15
2023-03-06T12:37:49.419Z,75.29
2023-03-06T12:38:49.523Z,75.19
2023-03-06T12:39:49.445Z,76.12
2023-03-06T12:40:49.401Z,76.22
2023-03-06T12:41:49.391Z,76.32
2023-03-06T12:42:49.395Z,76.32
2023-03-06T12:43:49.437Z,76.43
2023-03-06T12:44:49.351Z,76.32
2023-03-06T12:45:49.490Z,77.26
2023-03-06T12:46:49.372Z,77.56
2023-03-06T12:47:49.356Z,76.64
2023-03-06T12:48:49.334Z,76.84
2023-03-06T12:49:49.465Z,76.09
2023-03-06T12:50:49.344Z,76.12
2023-03-06T12:51:49.308Z,76.12
2023-03-06T12:52:50.335Z,76.70
2023-03-06T12:53:49.338Z,76.60